createdAt,value
2015-12-26T00:00:43.280Z,88
2015-12-26T00:01:44.813Z,88
2015-12-26T00:02:46.582Z,88
2015-12-26T00:03:48.350Z,88
2015-12-26T00:04:50.181Z,88
2015-12-26T00:05:51.902Z,88
2015-12-26T00:06:53.671Z,89
2015-12-26T00:07:55.705Z,88
2015-12-26T00:08:57.474Z,89
2015-12-26T00:09:59.538Z,88
2015-12-26T00:11:01.290Z,88
2015-12-26T00:12:03.059Z,88
2015-12-26T00:13:04.827Z,88
2015-12-26T00:14:06.612Z,88
2015-12-26T00:15:08.443Z,88
2015-12-26T00:16:10.165Z,88
2015-12-26T00:17:11.933Z,88
2015-12-26T00:18:13.717Z,88
2015-12-26T00:19:15.485Z,88
2015-12-26T00:20:17.269Z,88
2015-12-26T00:21:19.054Z,88
2015-12-26T00:22:20.384Z,88
2015-12-26T00:23:22.590Z,88
2015-12-26T00:24:24.358Z,88
2015-12-26T00:25:25.954Z,88
2015-12-26T00:26:27.660Z,88
2015-12-26T00:27:29.429Z,88
2015-12-26T00:28:31.212Z,88
2015-12-26T00:29:32.997Z,88
2015-12-26T00:31:36.534Z,88
2015-12-26T00:32:38.301Z,88
2015-12-26T00:33:40.086Z,88
2015-12-26T00:34:41.854Z,88
2015-12-26T00:35:43.685Z,88
2015-12-26T00:36:45.407Z,88
2015-12-26T00:37:47.176Z,88
2015-12-26T00:38:48.959Z,88
2015-12-26T00:39:50.742Z,88
2015-12-26T00:40:52.511Z,88
2015-12-26T00:41:54.280Z,88
2015-12-26T00:42:56.048Z,88
2015-12-26T00:43:57.817Z,88
2015-12-26T00:44:59.600Z,88
2015-12-26T00:46:01.165Z,88
2015-12-26T00:47:02.887Z,88
2015-12-26T00:48:04.406Z,88
2015-12-26T00:49:05.658Z,88
2015-12-26T00:50:07.176Z,88
2015-12-26T00:51:08.445Z,88
2015-12-26T00:52:09.697Z,88
2015-12-26T00:53:10.950Z,88
2015-12-26T00:54:12.221Z,88
2015-12-26T00:55:13.489Z,88
2015-12-26T00:56:14.805Z,88
2015-12-26T00:57:16.510Z,88
2015-12-26T00:58:17.794Z,88
2015-12-26T00:59:19.063Z,88
2015-12-26T01:00:20.347Z,88
2015-12-26T01:01:21.569Z,88
2015-12-26T01:02:22.821Z,88
2015-12-26T01:03:24.074Z,88
2015-12-26T01:04:25.076Z,88
2015-12-26T01:05:26.094Z,88
2015-12-26T01:06:27.144Z,88
2015-12-26T01:07:28.866Z,88
2015-12-26T01:08:29.869Z,87
2015-12-26T01:09:30.605Z,87
2015-12-26T01:10:31.357Z,87
2015-12-26T01:11:32.111Z,87
2015-12-26T01:12:32.863Z,87
2015-12-26T01:13:33.601Z,87
2015-12-26T01:14:34.088Z,87
2015-12-26T01:15:34.575Z,87
2015-12-26T01:16:35.125Z,87
2015-12-26T01:17:36.847Z,87
2015-12-26T01:18:37.068Z,87
2015-12-26T01:19:37.305Z,87
2015-12-26T01:20:37.542Z,86
2015-12-26T01:21:37.513Z,86
2015-12-26T01:22:37.485Z,86
2015-12-26T01:23:37.207Z,86
2015-12-26T01:24:36.926Z,86
2015-12-26T01:25:36.632Z,86
2015-12-26T01:26:36.415Z,86
2015-12-26T01:27:38.121Z,86
2015-12-26T01:28:37.858Z,86
2015-12-26T01:29:37.142Z,86
2015-12-26T01:30:37.285Z,86
2015-12-26T01:31:36.757Z,85
2015-12-26T01:32:35.978Z,85
2015-12-26T01:33:35.169Z,85
2015-12-26T01:34:34.376Z,85
2015-12-26T01:35:33.581Z,85
2015-12-26T01:36:32.865Z,85
2015-12-26T01:37:34.554Z,85
2015-12-26T01:38:33.761Z,85
2015-12-26T01:39:32.967Z,85
2015-12-26T01:40:32.188Z,85
2015-12-26T01:41:31.378Z,85
2015-12-26T01:42:30.585Z,85
2015-12-26T01:43:29.790Z,85
2015-12-26T01:44:28.995Z,85
2015-12-26T01:45:28.201Z,85
2015-12-26T01:46:27.454Z,85
2015-12-26T01:47:29.161Z,85
2015-12-26T01:48:28.366Z,85
2015-12-26T01:49:27.587Z,85
2015-12-26T01:50:26.511Z,85
2015-12-26T01:51:25.467Z,85
2015-12-26T01:52:24.408Z,85
2015-12-26T01:53:23.348Z,85
2015-12-26T01:54:22.039Z,85
2015-12-26T01:55:20.729Z,85
2015-12-26T01:56:19.747Z,85
2015-12-26T01:57:21.438Z,85
2015-12-26T01:58:20.409Z,85
2015-12-26T01:59:19.333Z,85
2015-12-26T02:00:18.289Z,85
2015-12-26T02:01:17.227Z,85
2015-12-26T02:02:16.166Z,85
2015-12-26T02:03:15.122Z,85
2015-12-26T02:04:14.344Z,85
2015-12-26T02:05:13.097Z,85
2015-12-26T02:06:12.788Z,85
2015-12-26T02:07:14.494Z,85
2015-12-26T02:08:13.700Z,85
2015-12-26T02:09:12.889Z,85
2015-12-26T02:10:12.096Z,85
2015-12-26T02:11:11.238Z,85
2015-12-26T02:12:10.241Z,85
2015-12-26T02:13:09.198Z,85
2015-12-26T02:14:07.888Z,85
2015-12-26T02:15:06.578Z,85
2015-12-26T02:16:05.316Z,85
2015-12-26T02:17:07.036Z,85
2015-12-26T02:18:05.727Z,84
2015-12-26T02:19:04.152Z,84
2015-12-26T02:20:02.577Z,84
2015-12-26T02:21:01.016Z,84
2015-12-26T02:21:59.457Z,84
2015-12-26T02:22:57.881Z,84
2015-12-26T02:23:56.322Z,84
2015-12-26T02:24:58.544Z,84
2015-12-26T02:26:00.952Z,84
2015-12-26T02:27:02.642Z,84
2015-12-26T02:28:04.927Z,84
2015-12-26T02:29:07.194Z,84
2015-12-26T02:30:09.479Z,83
2015-12-26T02:31:11.482Z,83
2015-12-26T02:32:13.515Z,83
2015-12-26T02:33:15.534Z,83
2015-12-26T02:34:17.552Z,83
2015-12-26T02:35:19.321Z,83
2015-12-26T02:36:21.151Z,83
2015-12-26T02:37:22.857Z,83
2015-12-26T02:38:24.860Z,83
2015-12-26T02:39:26.628Z,83
2015-12-26T02:40:28.397Z,83
2015-12-26T02:41:30.181Z,83
2015-12-26T02:42:31.918Z,83
2015-12-26T02:43:33.701Z,83
2015-12-26T02:44:35.454Z,83
2015-12-26T02:45:37.207Z,83
2015-12-26T02:46:39.038Z,83
2015-12-26T02:47:40.743Z,83
2015-12-26T02:48:42.512Z,83
2015-12-26T02:49:44.265Z,83
2015-12-26T02:50:46.034Z,83
2015-12-26T02:51:47.801Z,83
2015-12-26T02:52:49.570Z,83
2015-12-26T02:53:51.339Z,83
2015-12-26T02:54:53.091Z,83
2015-12-26T02:55:54.874Z,83
2015-12-26T02:56:56.675Z,83
2015-12-26T02:57:58.380Z,83
2015-12-26T02:59:00.164Z,83
2015-12-26T03:00:01.932Z,83
2015-12-26T03:01:03.685Z,83
2015-12-26T03:02:05.017Z,83
2015-12-26T03:03:07.207Z,83
2015-12-26T03:04:08.991Z,83
2015-12-26T03:05:10.744Z,83
2015-12-26T03:06:12.511Z,83
2015-12-26T03:07:14.327Z,83
2015-12-26T03:08:16.033Z,83
2015-12-26T03:09:17.786Z,83
2015-12-26T03:10:19.569Z,83
2015-12-26T03:12:23.856Z,84
2015-12-26T03:13:26.140Z,83
2015-12-26T03:14:28.174Z,84
2015-12-26T03:15:30.427Z,84
2015-12-26T03:16:32.695Z,84
2015-12-26T03:17:35.042Z,83
2015-12-26T03:18:36.763Z,83
2015-12-26T03:19:38.766Z,83
2015-12-26T03:20:40.502Z,83
2015-12-26T03:21:42.288Z,83
2015-12-26T03:22:44.040Z,83
2015-12-26T03:23:45.808Z,83
2015-12-26T03:24:47.579Z,83
2015-12-26T03:25:49.347Z,83
2015-12-26T03:26:50.849Z,82
2015-12-26T03:27:52.165Z,82
2015-12-26T03:28:53.871Z,82
2015-12-26T03:29:55.124Z,82
2015-12-26T03:30:56.111Z,82
2015-12-26T03:31:56.426Z,82
2015-12-26T03:32:57.601Z,82
2015-12-26T03:33:58.323Z,82
2015-12-26T03:34:59.060Z,82
2015-12-26T03:35:59.812Z,81
2015-12-26T03:37:00.299Z,81
2015-12-26T03:38:00.817Z,81
2015-12-26T03:39:02.524Z,81
2015-12-26T03:40:02.761Z,81
2015-12-26T03:41:02.981Z,81
2015-12-26T03:42:03.187Z,81
2015-12-26T03:43:03.426Z,81
2015-12-26T03:44:03.646Z,81
2015-12-26T03:45:03.898Z,81
2015-12-26T03:46:04.089Z,81
2015-12-26T03:47:04.311Z,81
2015-12-26T03:48:04.611Z,81
2015-12-26T03:49:06.300Z,81
2015-12-26T03:50:06.787Z,82
2015-12-26T03:51:07.525Z,82
2015-12-26T03:52:08.261Z,82
2015-12-26T03:53:09.000Z,82
2015-12-26T03:54:09.721Z,81
2015-12-26T03:55:10.208Z,81
2015-12-26T03:56:10.694Z,81
2015-12-26T03:57:10.744Z,81
2015-12-26T03:58:11.450Z,81
2015-12-26T03:59:13.156Z,81
2015-12-26T04:00:13.393Z,81
2015-12-26T04:01:13.604Z,81
2015-12-26T04:02:13.825Z,81
2015-12-26T04:03:14.047Z,81
2015-12-26T04:04:14.283Z,81
2015-12-26T04:05:14.490Z,81
2015-12-26T04:06:14.726Z,81
2015-12-26T04:07:14.948Z,81
2015-12-26T04:08:15.232Z,81
2015-12-26T04:09:16.921Z,81
2015-12-26T04:10:17.160Z,81
2015-12-26T04:11:17.381Z,81
2015-12-26T04:12:17.618Z,81
2015-12-26T04:13:17.824Z,81
2015-12-26T04:14:18.045Z,81
2015-12-26T04:15:18.282Z,81
2015-12-26T04:16:18.504Z,81
2015-12-26T04:17:18.726Z,81
2015-12-26T04:18:18.743Z,81
2015-12-26T04:19:20.449Z,81
2015-12-26T04:20:20.420Z,81
2015-12-26T04:21:20.376Z,80
2015-12-26T04:22:20.114Z,80
2015-12-26T04:23:19.786Z,81
2015-12-26T04:24:19.756Z,80
2015-12-26T04:25:19.588Z,80
2015-12-26T04:26:19.215Z,80
2015-12-26T04:27:18.874Z,80
2015-12-26T04:28:18.642Z,80
2015-12-26T04:29:20.349Z,80
2015-12-26T04:30:19.789Z,79
2015-12-26T04:31:18.995Z,80
2015-12-26T04:32:18.450Z,80
2015-12-26T04:33:17.470Z,80
2015-12-26T04:34:17.362Z,80
2015-12-26T04:35:16.803Z,80
2015-12-26T04:36:16.243Z,79
2015-12-26T04:37:15.027Z,80
2015-12-26T04:38:14.968Z,80
2015-12-26T04:39:16.673Z,80
2015-12-26T04:40:16.114Z,80
2015-12-26T04:41:15.554Z,79
2015-12-26T04:42:14.759Z,79
2015-12-26T04:43:13.934Z,79
2015-12-26T04:44:13.140Z,79
2015-12-26T04:45:12.331Z,79
2015-12-26T04:46:11.536Z,79
2015-12-26T04:47:10.727Z,79
2015-12-26T04:48:09.980Z,79
2015-12-26T04:49:11.686Z,79
2015-12-26T04:50:10.641Z,79
2015-12-26T04:51:09.816Z,79
2015-12-26T04:52:08.772Z,79
2015-12-26T04:53:07.961Z,79
2015-12-26T04:54:07.152Z,79
2015-12-26T04:55:06.342Z,79
2015-12-26T04:56:05.533Z,79
2015-12-26T04:57:04.472Z,79
2015-12-26T04:58:03.472Z,79
2015-12-26T04:59:05.163Z,79
2015-12-26T05:00:03.853Z,79
2015-12-26T05:01:02.527Z,79
2015-12-26T05:02:01.218Z,79
2015-12-26T05:02:59.893Z,79
2015-12-26T05:03:58.582Z,78
2015-12-26T05:04:57.023Z,78
2015-12-26T05:05:55.432Z,78
2015-12-26T05:06:53.856Z,78
2015-12-26T05:07:52.344Z,78
2015-12-26T05:08:54.050Z,78
2015-12-26T05:09:52.068Z,78
2015-12-26T05:10:54.758Z,78
2015-12-26T05:11:57.027Z,78
2015-12-26T05:12:59.279Z,78
2015-12-26T05:13:57.719Z,78
2015-12-26T05:14:56.143Z,78
2015-12-26T05:15:58.428Z,78
2015-12-26T05:17:00.681Z,78
2015-12-26T05:18:03.012Z,78
2015-12-26T05:19:04.718Z,78
2015-12-26T05:20:06.985Z,78
2015-12-26T05:21:09.255Z,77
2015-12-26T05:22:11.274Z,78
2015-12-26T05:23:13.276Z,78
2015-12-26T05:24:15.293Z,78
2015-12-26T05:25:17.296Z,78
2015-12-26T05:26:19.315Z,77
2015-12-26T05:27:21.084Z,77
2015-12-26T05:28:22.874Z,77
2015-12-26T05:29:24.567Z,77
2015-12-26T05:30:26.306Z,77
2015-12-26T05:31:28.060Z,77
2015-12-26T05:32:29.800Z,78
2015-12-26T05:33:31.796Z,77
2015-12-26T05:34:33.560Z,78
2015-12-26T05:35:35.573Z,77
2015-12-26T05:36:37.307Z,77
2015-12-26T05:37:39.070Z,77
2015-12-26T05:38:40.883Z,77
2015-12-26T05:39:42.586Z,78
2015-12-26T05:40:44.588Z,77
2015-12-26T05:41:46.339Z,77
2015-12-26T05:42:48.105Z,77
2015-12-26T05:43:49.857Z,77
2015-12-26T05:44:51.610Z,77
2015-12-26T05:45:53.393Z,77
2015-12-26T05:46:55.129Z,77
2015-12-26T05:47:56.460Z,77
2015-12-26T05:48:58.697Z,77
2015-12-26T05:50:00.386Z,77
2015-12-26T05:51:02.155Z,77
2015-12-26T05:52:03.923Z,77
2015-12-26T05:53:05.678Z,77
2015-12-26T05:54:07.415Z,77
2015-12-26T05:55:09.184Z,77
2015-12-26T05:56:10.936Z,77
2015-12-26T05:57:12.439Z,77
2015-12-26T05:58:14.192Z,77
2015-12-26T05:59:16.007Z,77
2015-12-26T06:00:17.712Z,77
2015-12-26T06:01:19.465Z,77
2015-12-26T06:02:21.217Z,77
2015-12-26T06:03:22.970Z,77
2015-12-26T06:04:24.754Z,77
2015-12-26T06:05:26.492Z,77
2015-12-26T06:06:28.245Z,77
2015-12-26T06:07:29.998Z,77
2015-12-26T06:08:31.765Z,77
2015-12-26T06:09:33.565Z,77
2015-12-26T06:10:35.256Z,77
2015-12-26T06:11:36.759Z,77
2015-12-26T06:12:38.526Z,77
2015-12-26T06:13:40.279Z,77
2015-12-26T06:14:42.032Z,77
2015-12-26T06:15:43.785Z,77
2015-12-26T06:16:45.287Z,77
2015-12-26T06:17:46.790Z,77
2015-12-26T06:18:48.278Z,76
2015-12-26T06:19:49.592Z,76
2015-12-26T06:20:51.299Z,77
2015-12-26T06:21:52.787Z,77
2015-12-26T06:22:54.289Z,77
2015-12-26T06:23:55.792Z,76
2015-12-26T06:24:57.029Z,77
2015-12-26T06:27:00.034Z,77
2015-12-26T06:28:01.521Z,77
2015-12-26T06:29:03.039Z,77
2015-12-26T06:30:04.589Z,77
2015-12-26T06:31:06.279Z,77
2015-12-26T06:32:07.344Z,77
2015-12-26T06:33:09.285Z,77
2015-12-26T06:34:10.772Z,76
2015-12-26T06:35:12.025Z,76
2015-12-26T06:36:13.277Z,76
2015-12-26T06:37:14.514Z,76
2015-12-26T06:38:15.751Z,76
2015-12-26T06:39:16.988Z,76
2015-12-26T06:40:18.289Z,76
2015-12-26T06:41:20.010Z,76
2015-12-26T06:42:21.247Z,76
2015-12-26T06:43:22.484Z,77
2015-12-26T06:44:23.987Z,77
2015-12-26T06:45:25.489Z,76
2015-12-26T06:46:26.727Z,76
2015-12-26T06:47:27.963Z,77
2015-12-26T06:48:29.466Z,77
2015-12-26T06:49:30.969Z,77
2015-12-26T06:50:32.518Z,77
2015-12-26T06:51:34.224Z,77
2015-12-26T06:52:35.727Z,77
2015-12-26T06:53:37.480Z,77
2015-12-26T06:54:38.967Z,77
2015-12-26T06:55:40.485Z,77
2015-12-26T06:56:42.238Z,77
2015-12-26T06:57:44.007Z,77
2015-12-26T06:58:45.744Z,77
2015-12-26T06:59:47.496Z,77
2015-12-26T07:00:49.312Z,77
2015-12-26T07:01:51.018Z,77
2015-12-26T07:02:52.771Z,77
2015-12-26T07:03:54.523Z,77
2015-12-26T07:04:56.276Z,77
2015-12-26T07:05:58.043Z,77
2015-12-26T07:06:59.797Z,77
2015-12-26T07:08:01.550Z,77
2015-12-26T07:09:03.302Z,77
2015-12-26T07:10:05.071Z,77
2015-12-26T07:11:06.871Z,77
2015-12-26T07:12:08.577Z,77
2015-12-26T07:13:10.329Z,78
2015-12-26T07:14:12.348Z,78
2015-12-26T07:15:14.350Z,78
2015-12-26T07:16:16.369Z,78
2015-12-26T07:17:18.387Z,78
2015-12-26T07:18:20.390Z,78
2015-12-26T07:19:22.392Z,77
2015-12-26T07:20:24.145Z,77
2015-12-26T07:21:25.976Z,77
2015-12-26T07:22:27.667Z,77
2015-12-26T07:23:29.420Z,77
2015-12-26T07:24:31.172Z,77
2015-12-26T07:25:32.940Z,77
2015-12-26T07:26:34.692Z,77
2015-12-26T07:27:36.431Z,77
2015-12-26T07:28:38.199Z,77
2015-12-26T07:29:39.951Z,77
2015-12-26T07:30:41.719Z,77
2015-12-26T07:31:43.519Z,77
2015-12-26T07:32:45.225Z,78
2015-12-26T07:33:47.243Z,77
2015-12-26T07:34:49.012Z,77
2015-12-26T07:35:50.748Z,77
2015-12-26T07:36:52.501Z,77
2015-12-26T07:37:54.269Z,77
2015-12-26T07:38:56.022Z,77
2015-12-26T07:39:57.759Z,77
2015-12-26T07:40:59.262Z,77
2015-12-26T07:42:00.827Z,77
2015-12-26T07:43:02.517Z,77
2015-12-26T07:44:04.020Z,77
2015-12-26T07:45:05.508Z,76
2015-12-26T07:46:06.761Z,76
2015-12-26T07:47:08.013Z,76
2015-12-26T07:48:09.235Z,76
2015-12-26T07:49:10.488Z,76
2015-12-26T07:50:11.725Z,76
2015-12-26T07:51:12.962Z,76
2015-12-26T07:52:14.261Z,76
2015-12-26T07:53:15.530Z,76
2015-12-26T07:54:16.955Z,76
2015-12-26T07:55:17.942Z,76
2015-12-26T07:56:18.914Z,76
2015-12-26T07:57:19.900Z,76
2015-12-26T07:58:20.888Z,76
2015-12-26T07:59:21.905Z,76
2015-12-26T08:00:22.862Z,76
2015-12-26T08:01:23.802Z,76
2015-12-26T08:02:24.899Z,76
2015-12-26T08:03:26.589Z,76
2015-12-26T08:04:27.575Z,76
2015-12-26T08:05:28.813Z,76
2015-12-26T08:06:30.050Z,76
2015-12-26T08:07:31.318Z,76
2015-12-26T08:08:32.540Z,76
2015-12-26T08:09:33.777Z,76
2015-12-26T08:10:35.029Z,76
2015-12-26T08:11:36.016Z,76
2015-12-26T08:12:37.051Z,76
2015-12-26T08:13:38.741Z,76
2015-12-26T08:14:39.744Z,76
2015-12-26T08:15:40.466Z,76
2015-12-26T08:16:41.187Z,76
2015-12-26T08:17:41.924Z,76
2015-12-26T08:18:42.660Z,76
2015-12-26T08:19:43.382Z,76
2015-12-26T08:20:44.135Z,76
2015-12-26T08:21:45.090Z,76
2015-12-26T08:22:46.141Z,76
2015-12-26T08:23:47.863Z,76
2015-12-26T08:24:48.818Z,76
2015-12-26T08:25:49.805Z,76
2015-12-26T08:26:50.792Z,76
2015-12-26T08:27:51.357Z,76
2015-12-26T08:28:52.766Z,76
2015-12-26T08:29:53.754Z,76
2015-12-26T08:30:54.725Z,76
2015-12-26T08:31:55.712Z,76
2015-12-26T08:32:56.762Z,76
2015-12-26T08:33:58.404Z,76
2015-12-26T08:34:59.440Z,76
2015-12-26T08:36:00.426Z,76
2015-12-26T08:37:01.413Z,76
2015-12-26T08:38:02.416Z,76
2015-12-26T08:39:03.373Z,76
2015-12-26T08:40:04.359Z,76
2015-12-26T08:41:05.346Z,76
2015-12-26T08:42:06.334Z,76
2015-12-26T08:43:07.352Z,76
2015-12-26T08:44:09.057Z,76
2015-12-26T08:45:10.045Z,76
2015-12-26T08:46:11.032Z,76
2015-12-26T08:47:12.004Z,76
2015-12-26T08:48:12.726Z,76
2015-12-26T08:49:13.462Z,76
2015-12-26T08:50:14.199Z,76
2015-12-26T08:51:14.905Z,76
2015-12-26T08:52:15.642Z,76
2015-12-26T08:53:16.426Z,76
2015-12-26T08:54:18.132Z,76
2015-12-26T08:55:18.854Z,76
2015-12-26T08:56:19.840Z,76
2015-12-26T08:57:20.828Z,76
2015-12-26T08:58:21.800Z,76
2015-12-26T08:59:22.786Z,76
2015-12-26T09:00:23.758Z,76
2015-12-26T09:01:24.776Z,76
2015-12-26T09:02:25.732Z,76
2015-12-26T09:03:26.781Z,76
2015-12-26T09:04:28.487Z,76
2015-12-26T09:05:29.443Z,76
2015-12-26T09:06:30.430Z,76
2015-12-26T09:07:31.417Z,76
2015-12-26T09:08:32.389Z,76
2015-12-26T09:09:33.380Z,76
2015-12-26T09:10:34.368Z,76
2015-12-26T09:11:35.355Z,76
2015-12-26T09:12:36.576Z,76
2015-12-26T09:13:37.625Z,76
2015-12-26T09:14:39.315Z,76
2015-12-26T09:15:39.882Z,76
2015-12-26T09:16:41.290Z,76
2015-12-26T09:17:42.262Z,76
2015-12-26T09:18:43.249Z,76
2015-12-26T09:19:44.235Z,76
2015-12-26T09:20:45.223Z,76
2015-12-26T09:21:46.210Z,76
2015-12-26T09:22:47.197Z,76
2015-12-26T09:23:48.215Z,76
2015-12-26T09:24:49.921Z,76
2015-12-26T09:25:50.909Z,76
2015-12-26T09:26:51.912Z,76
2015-12-26T09:27:52.883Z,76
2015-12-26T09:28:53.871Z,76
2015-12-26T09:29:54.842Z,76
2015-12-26T09:30:55.829Z,76
2015-12-26T09:31:56.815Z,76
2015-12-26T09:32:57.787Z,76
2015-12-26T09:33:58.837Z,76
2015-12-26T09:35:00.543Z,76
2015-12-26T09:36:01.514Z,76
2015-12-26T09:37:02.751Z,76
2015-12-26T09:38:03.567Z,76
2015-12-26T09:39:05.007Z,76
2015-12-26T09:40:06.229Z,76
2015-12-26T09:41:07.481Z,76
2015-12-26T09:42:08.703Z,76
2015-12-26T09:43:09.956Z,76
2015-12-26T09:44:11.239Z,76
2015-12-26T09:45:12.944Z,76
2015-12-26T09:46:14.182Z,76
2015-12-26T09:47:14.998Z,76
2015-12-26T09:48:16.672Z,76
2015-12-26T09:49:17.908Z,76
2015-12-26T09:50:19.147Z,76
2015-12-26T09:51:20.400Z,76
2015-12-26T09:52:21.370Z,76
2015-12-26T09:53:22.623Z,76
2015-12-26T09:54:23.907Z,76
2015-12-26T09:55:25.613Z,76
2015-12-26T09:56:26.865Z,76
2015-12-26T09:57:28.087Z,76
2015-12-26T09:58:29.324Z,76
2015-12-26T09:59:30.577Z,76
2015-12-26T10:00:31.814Z,76
2015-12-26T10:01:33.052Z,76
2015-12-26T10:02:34.288Z,76
2015-12-26T10:03:35.541Z,76
2015-12-26T10:04:36.825Z,76
2015-12-26T10:05:38.094Z,76
2015-12-26T10:06:39.752Z,76
2015-12-26T10:07:40.739Z,76
2015-12-26T10:09:42.713Z,76
2015-12-26T10:10:43.436Z,76
2015-12-26T10:11:44.172Z,76
2015-12-26T10:12:44.894Z,75
2015-12-26T10:13:45.366Z,75
2015-12-26T10:14:45.900Z,75
2015-12-26T10:15:47.590Z,75
2015-12-26T10:16:48.077Z,75
2015-12-26T10:17:48.533Z,75
2015-12-26T10:18:48.755Z,75
2015-12-26T10:19:48.979Z,75
2015-12-26T10:20:49.186Z,75
2015-12-26T10:21:49.392Z,75
2015-12-26T10:22:49.613Z,74
2015-12-26T10:23:49.600Z,74
2015-12-26T10:24:49.353Z,74
2015-12-26T10:25:51.231Z,74
2015-12-26T10:26:50.499Z,74
2015-12-26T10:27:49.970Z,74
2015-12-26T10:28:49.379Z,73
2015-12-26T10:29:48.570Z,73
2015-12-26T10:30:47.776Z,73
2015-12-26T10:31:46.698Z,73
2015-12-26T10:32:45.887Z,73
2015-12-26T10:33:45.078Z,73
2015-12-26T10:34:44.331Z,73
2015-12-26T10:35:46.020Z,73
2015-12-26T10:36:45.211Z,74
2015-12-26T10:37:44.651Z,74
2015-12-26T10:38:44.108Z,74
2015-12-26T10:39:43.564Z,74
2015-12-26T10:40:42.988Z,74
2015-12-26T10:41:42.444Z,74
2015-12-26T10:42:41.899Z,74
2015-12-26T10:43:41.339Z,74
2015-12-26T10:44:40.842Z,74
2015-12-26T10:45:42.516Z,74
2015-12-26T10:46:42.223Z,74
2015-12-26T10:47:41.928Z,74
2015-12-26T10:48:41.619Z,74
2015-12-26T10:49:41.326Z,74
2015-12-26T10:50:41.047Z,74
2015-12-26T10:51:40.737Z,74
2015-12-26T10:52:40.428Z,74
2015-12-26T10:53:40.055Z,74
2015-12-26T10:54:40.120Z,74
2015-12-26T10:55:41.859Z,74
2015-12-26T10:56:41.548Z,74
2015-12-26T10:57:41.239Z,74
2015-12-26T10:58:41.179Z,74
2015-12-26T10:59:41.166Z,74
2015-12-26T11:00:41.122Z,74
2015-12-26T11:01:41.062Z,74
2015-12-26T11:02:41.033Z,74
2015-12-26T11:03:40.990Z,75
2015-12-26T11:04:41.258Z,75
2015-12-26T11:05:42.933Z,75
2015-12-26T11:06:43.153Z,75
2015-12-26T11:07:43.375Z,75
2015-12-26T11:08:43.597Z,75
2015-12-26T11:09:43.803Z,75
2015-12-26T11:10:44.010Z,75
2015-12-26T11:11:44.232Z,75
2015-12-26T11:12:44.453Z,75
2015-12-26T11:13:44.674Z,75
2015-12-26T11:14:45.193Z,75
2015-12-26T11:15:46.882Z,75
2015-12-26T11:16:47.354Z,75
2015-12-26T11:17:47.841Z,75
2015-12-26T11:18:48.297Z,75
2015-12-26T11:19:48.503Z,75
2015-12-26T11:20:48.725Z,74
2015-12-26T11:21:48.696Z,75
2015-12-26T11:22:48.901Z,74
2015-12-26T11:23:48.870Z,74
2015-12-26T11:24:48.639Z,74
2015-12-26T11:25:50.348Z,74
2015-12-26T11:26:50.022Z,74
2015-12-26T11:27:49.975Z,74
2015-12-26T11:28:49.931Z,74
2015-12-26T11:29:49.918Z,75
2015-12-26T11:30:50.109Z,75
2015-12-26T11:31:50.330Z,75
2015-12-26T11:32:50.536Z,75
2015-12-26T11:33:50.758Z,75
2015-12-26T11:34:51.011Z,75
2015-12-26T11:35:52.716Z,75
2015-12-26T11:36:52.921Z,75
2015-12-26T11:37:53.159Z,75
2015-12-26T11:38:53.397Z,75
2015-12-26T11:39:53.570Z,74
2015-12-26T11:40:53.527Z,74
2015-12-26T11:41:53.498Z,74
2015-12-26T11:42:53.454Z,74
2015-12-26T11:43:53.410Z,74
2015-12-26T11:44:53.428Z,74
2015-12-26T11:45:55.134Z,74
2015-12-26T11:46:55.089Z,74
2015-12-26T11:47:55.046Z,74
2015-12-26T11:48:55.002Z,74
2015-12-26T11:49:54.957Z,74
2015-12-26T11:50:54.930Z,74
2015-12-26T11:51:54.635Z,74
2015-12-26T11:52:54.341Z,74
2015-12-26T11:53:53.625Z,74
2015-12-26T11:54:53.800Z,74
2015-12-26T11:55:55.490Z,74
2015-12-26T11:56:55.186Z,74
2015-12-26T11:57:54.908Z,74
2015-12-26T11:58:54.348Z,74
2015-12-26T11:59:53.788Z,74
2015-12-26T12:00:53.244Z,73
2015-12-26T12:01:52.419Z,73
2015-12-26T12:02:51.608Z,73
2015-12-26T12:03:50.799Z,73
2015-12-26T12:04:50.052Z,73
2015-12-26T12:05:51.742Z,73
2015-12-26T12:06:50.933Z,74
2015-12-26T12:07:50.373Z,74
2015-12-26T12:08:49.828Z,74
2015-12-26T12:09:49.269Z,74
2015-12-26T12:10:48.725Z,74
2015-12-26T12:11:48.147Z,73
2015-12-26T12:12:47.352Z,73
2015-12-26T12:13:46.972Z,73
2015-12-26T12:14:45.772Z,74
2015-12-26T12:15:48.782Z,74
2015-12-26T12:16:47.049Z,74
2015-12-26T12:17:46.365Z,74
2015-12-26T12:18:46.040Z,74
2015-12-26T12:19:45.745Z,74
2015-12-26T12:20:45.435Z,74
2015-12-26T12:21:45.391Z,75
2015-12-26T12:22:45.629Z,75
2015-12-26T12:23:45.818Z,75
2015-12-26T12:24:46.087Z,75
2015-12-26T12:25:47.794Z,75
2015-12-26T12:26:48.016Z,74
2015-12-26T12:27:47.972Z,74
2015-12-26T12:28:47.927Z,74
2015-12-26T12:29:47.883Z,74
2015-12-26T12:30:47.838Z,74
2015-12-26T12:31:47.779Z,74
2015-12-26T12:32:47.751Z,74
2015-12-26T12:33:47.457Z,74
2015-12-26T12:34:47.224Z,74
2015-12-26T12:35:48.946Z,74
2015-12-26T12:36:48.605Z,74
2015-12-26T12:37:48.311Z,74
2015-12-26T12:38:48.018Z,74
2015-12-26T12:39:47.723Z,74
2015-12-26T12:40:47.413Z,74
2015-12-26T12:41:47.104Z,74
2015-12-26T12:42:46.841Z,74
2015-12-26T12:43:46.281Z,74
2015-12-26T12:44:45.830Z,74
2015-12-26T12:45:47.458Z,73
2015-12-26T12:46:46.648Z,74
2015-12-26T12:47:46.104Z,74
2015-12-26T12:48:45.545Z,74
2015-12-26T12:49:44.985Z,74
2015-12-26T12:50:44.440Z,74
2015-12-26T12:51:43.865Z,74
2015-12-26T12:52:43.321Z,74
2015-12-26T12:53:42.774Z,74
2015-12-26T12:54:42.261Z,74
2015-12-26T12:55:43.951Z,74
2015-12-26T12:56:43.392Z,74
2015-12-26T12:57:42.848Z,74
2015-12-26T12:58:42.304Z,74
2015-12-26T12:59:41.729Z,74
2015-12-26T13:00:41.169Z,74
2015-12-26T13:01:40.624Z,74
2015-12-26T13:02:40.049Z,74
2015-12-26T13:03:39.505Z,74
2015-12-26T13:04:39.007Z,74
2015-12-26T13:05:40.698Z,74
2015-12-26T13:06:40.154Z,74
2015-12-26T13:07:39.579Z,74
2015-12-26T13:08:39.034Z,74
2015-12-26T13:09:38.475Z,74
2015-12-26T13:10:37.931Z,74
2015-12-26T13:11:37.371Z,74
2015-12-26T13:12:36.812Z,74
2015-12-26T13:13:36.267Z,74
2015-12-26T13:14:35.770Z,74
2015-12-26T13:15:37.444Z,74
2015-12-26T13:16:36.900Z,74
2015-12-26T13:17:36.341Z,74
2015-12-26T13:18:36.031Z,74
2015-12-26T13:20:35.192Z,74
2015-12-26T13:21:34.633Z,73
2015-12-26T13:22:33.823Z,73
2015-12-26T13:23:33.014Z,73
2015-12-26T13:24:32.266Z,73
2015-12-26T13:25:33.956Z,73
2015-12-26T13:26:33.147Z,73
2015-12-26T13:28:31.540Z,73
2015-12-26T13:29:30.714Z,74
2015-12-26T13:30:30.156Z,74
2015-12-26T13:31:29.594Z,74
2015-12-26T13:32:29.050Z,74
2015-12-26T13:33:28.054Z,74
2015-12-26T13:34:27.978Z,73
2015-12-26T13:35:29.669Z,73
2015-12-26T13:36:28.875Z,73
2015-12-26T13:37:28.064Z,74
2015-12-26T13:38:27.520Z,73
2015-12-26T13:39:26.695Z,73
2015-12-26T13:40:25.886Z,74
2015-12-26T13:41:24.903Z,74
2015-12-26T13:42:24.781Z,74
2015-12-26T13:43:24.222Z,74
2015-12-26T13:44:23.990Z,74
2015-12-26T13:45:25.665Z,74
2015-12-26T13:46:25.371Z,74
2015-12-26T13:47:25.078Z,74
2015-12-26T13:48:24.798Z,74
2015-12-26T13:49:24.488Z,74
2015-12-26T13:50:24.179Z,74
2015-12-26T13:51:23.900Z,74
2015-12-26T13:52:23.341Z,74
2015-12-26T13:53:22.797Z,74
2015-12-26T13:54:22.283Z,73
2015-12-26T13:55:23.990Z,73
2015-12-26T13:56:22.742Z,73
2015-12-26T13:57:22.367Z,74
2015-12-26T13:58:21.838Z,74
2015-12-26T13:59:21.264Z,74
2015-12-26T14:00:20.688Z,74
2015-12-26T14:01:20.394Z,74
2015-12-26T14:02:20.116Z,74
2015-12-26T14:03:19.806Z,74
2015-12-26T14:04:19.558Z,74
2015-12-26T14:05:21.249Z,74
2015-12-26T14:06:20.954Z,74
2015-12-26T14:07:20.660Z,74
2015-12-26T14:08:20.382Z,74
2015-12-26T14:09:20.056Z,74
2015-12-26T14:10:19.762Z,74
2015-12-26T14:11:19.468Z,74
2015-12-26T14:12:19.205Z,74
2015-12-26T14:13:18.646Z,73
2015-12-26T14:14:17.898Z,73
2015-12-26T14:15:19.573Z,73
2015-12-26T14:16:18.779Z,73
2015-12-26T14:17:17.969Z,73
2015-12-26T14:18:17.160Z,73
2015-12-26T14:19:16.349Z,73
2015-12-26T14:21:14.714Z,73
2015-12-26T14:22:13.905Z,73
2015-12-26T14:23:12.860Z,73
2015-12-26T14:24:11.847Z,73
2015-12-26T14:25:13.522Z,73
2015-12-26T14:26:12.462Z,73
2015-12-26T14:27:11.387Z,73
2015-12-26T14:28:10.328Z,73
2015-12-26T14:29:09.518Z,73
2015-12-26T14:30:08.458Z,73
2015-12-26T14:31:07.399Z,73
2015-12-26T14:32:06.336Z,73